sensor_id;sensor_type;location;lat;lon;timestamp;P1;durP1;ratioP1;P2;durP2;ratioP2
39020;SDS011;25188;51.958;5.842;2023-07-28T00:00:20;10.70;;;8.10;;
39020;SDS011;25188;51.958;5.842;2023-07-28T00:02:46;10.00;;;8.20;;
39020;SDS011;25188;51.958;5.842;2023-07-28T00:05:11;10.30;;;9.20;;
39020;SDS011;25188;51.958;5.842;2023-07-28T00:07:37;9.73;;;8.25;;
39020;SDS011;25188;51.958;5.842;2023-07-28T00:10:03;12.23;;;8.13;;
39020;SDS011;25188;51.958;5.842;2023-07-28T00:12:28;11.48;;;9.13;;
39020;SDS011;25188;51.958;5.842;2023-07-28T00:14:54;10.38;;;8.73;;
39020;SDS011;25188;51.958;5.842;2023-07-28T00:17:20;13.35;;;9.65;;
39020;SDS011;25188;51.958;5.842;2023-07-28T00:19:45;11.38;;;9.75;;
39020;SDS011;25188;51.958;5.842;2023-07-28T00:22:11;11.85;;;9.75;;
39020;SDS011;25188;51.958;5.842;2023-07-28T00:24:37;11.60;;;9.52;;
39020;SDS011;25188;51.958;5.842;2023-07-28T00:27:02;11.95;;;10.40;;
39020;SDS011;25188;51.958;5.842;2023-07-28T00:29:28;11.88;;;9.82;;
39020;SDS011;25188;51.958;5.842;2023-07-28T00:31:54;10.82;;;8.95;;
39020;SDS011;25188;51.958;5.842;2023-07-28T00:34:20;11.63;;;9.40;;
39020;SDS011;25188;51.958;5.842;2023-07-28T00:36:45;11.57;;;9.15;;
39020;SDS011;25188;51.958;5.842;2023-07-28T00:39:11;12.73;;;8.90;;
39020;SDS011;25188;51.958;5.842;2023-07-28T00:41:37;11.45;;;9.15;;
39020;SDS011;25188;51.958;5.842;2023-07-28T00:44:02;11.82;;;9.15;;
39020;SDS011;25188;51.958;5.842;2023-07-28T00:46:28;12.30;;;9.43;;
39020;SDS011;25188;51.958;5.842;2023-07-28T00:48:54;13.15;;;8.07;;
39020;SDS011;25188;51.958;5.842;2023-07-28T00:51:20;10.27;;;8.30;;
39020;SDS011;25188;51.958;5.842;2023-07-28T00:53:46;9.65;;;6.90;;
39020;SDS011;25188;51.958;5.842;2023-07-28T00:56:11;10.65;;;8.85;;
39020;SDS011;25188;51.958;5.842;2023-07-28T00:58:37;9.88;;;8.00;;
39020;SDS011;25188;51.958;5.842;2023-07-28T01:01:03;10.45;;;7.88;;
39020;SDS011;25188;51.958;5.842;2023-07-28T01:03:29;11.70;;;9.02;;
39020;SDS011;25188;51.958;5.842;2023-07-28T01:06:03;10.88;;;8.18;;
39020;SDS011;25188;51.958;5.842;2023-07-28T01:08:57;12.95;;;8.25;;
39020;SDS011;25188;51.958;5.842;2023-07-28T01:11:28;10.50;;;7.53;;
39020;SDS011;25188;51.958;5.842;2023-07-28T01:13:54;13.10;;;9.13;;
39020;SDS011;25188;51.958;5.842;2023-07-28T01:16:20;11.77;;;9.35;;
39020;SDS011;25188;51.958;5.842;2023-07-28T01:18:46;10.60;;;8.48;;
39020;SDS011;25188;51.958;5.842;2023-07-28T01:21:21;11.35;;;8.75;;
39020;SDS011;25188;51.958;5.842;2023-07-28T01:26:52;12.68;;;8.80;;
39020;SDS011;25188;51.958;5.842;2023-07-28T01:29:19;13.93;;;8.85;;
39020;SDS011;25188;51.958;5.842;2023-07-28T01:31:48;13.73;;;8.32;;
39020;SDS011;25188;51.958;5.842;2023-07-28T01:34:13;14.63;;;9.27;;
39020;SDS011;25188;51.958;5.842;2023-07-28T01:36:39;13.77;;;10.02;;
39020;SDS011;25188;51.958;5.842;2023-07-28T01:39:05;12.57;;;9.50;;
39020;SDS011;25188;51.958;5.842;2023-07-28T01:41:31;13.68;;;9.93;;
39020;SDS011;25188;51.958;5.842;2023-07-28T01:43:57;13.27;;;10.05;;
39020;SDS011;25188;51.958;5.842;2023-07-28T01:46:23;15.02;;;11.13;;
39020;SDS011;25188;51.958;5.842;2023-07-28T01:48:49;16.33;;;10.93;;
39020;SDS011;25188;51.958;5.842;2023-07-28T01:51:14;17.58;;;11.80;;
39020;SDS011;25188;51.958;5.842;2023-07-28T01:53:40;18.50;;;12.95;;
39020;SDS011;25188;51.958;5.842;2023-07-28T01:56:06;14.57;;;10.70;;
39020;SDS011;25188;51.958;5.842;2023-07-28T01:58:31;14.45;;;11.07;;
39020;SDS011;25188;51.958;5.842;2023-07-28T02:00:57;15.43;;;11.10;;
39020;SDS011;25188;51.958;5.842;2023-07-28T02:03:23;15.73;;;11.00;;
39020;SDS011;25188;51.958;5.842;2023-07-28T02:05:48;17.13;;;10.98;;
39020;SDS011;25188;51.958;5.842;2023-07-28T02:08:14;16.95;;;11.55;;
39020;SDS011;25188;51.958;5.842;2023-07-28T02:10:40;18.42;;;12.43;;
39020;SDS011;25188;51.958;5.842;2023-07-28T02:13:06;19.92;;;12.82;;
39020;SDS011;25188;51.958;5.842;2023-07-28T02:15:31;18.77;;;12.52;;
39020;SDS011;25188;51.958;5.842;2023-07-28T02:17:57;19.33;;;13.18;;
39020;SDS011;25188;51.958;5.842;2023-07-28T02:20:23;21.98;;;14.05;;
39020;SDS011;25188;51.958;5.842;2023-07-28T02:22:48;21.40;;;14.15;;
39020;SDS011;25188;51.958;5.842;2023-07-28T02:25:14;25.38;;;14.15;;
39020;SDS011;25188;51.958;5.842;2023-07-28T02:27:39;24.13;;;13.93;;
39020;SDS011;25188;51.958;5.842;2023-07-28T02:30:05;20.65;;;13.73;;
39020;SDS011;25188;51.958;5.842;2023-07-28T02:32:31;18.23;;;12.48;;
39020;SDS011;25188;51.958;5.842;2023-07-28T02:34:58;19.77;;;12.65;;
39020;SDS011;25188;51.958;5.842;2023-07-28T02:37:24;25.50;;;13.98;;
39020;SDS011;25188;51.958;5.842;2023-07-28T02:39:50;23.52;;;15.55;;
39020;SDS011;25188;51.958;5.842;2023-07-28T02:42:16;21.15;;;14.18;;
39020;SDS011;25188;51.958;5.842;2023-07-28T02:44:41;26.20;;;15.13;;
39020;SDS011;25188;51.958;5.842;2023-07-28T02:47:07;23.48;;;14.25;;
39020;SDS011;25188;51.958;5.842;2023-07-28T02:49:33;27.02;;;15.70;;
39020;SDS011;25188;51.958;5.842;2023-07-28T02:51:58;26.10;;;14.68;;
39020;SDS011;25188;51.958;5.842;2023-07-28T02:54:24;22.98;;;14.20;;
39020;SDS011;25188;51.958;5.842;2023-07-28T02:56:50;21.65;;;14.85;;
39020;SDS011;25188;51.958;5.842;2023-07-28T02:59:16;22.85;;;14.52;;
39020;SDS011;25188;51.958;5.842;2023-07-28T03:01:42;24.88;;;14.60;;
39020;SDS011;25188;51.958;5.842;2023-07-28T03:04:07;25.25;;;15.95;;
39020;SDS011;25188;51.958;5.842;2023-07-28T03:06:33;26.27;;;15.95;;
39020;SDS011;25188;51.958;5.842;2023-07-28T03:08:59;27.17;;;16.52;;
39020;SDS011;25188;51.958;5.842;2023-07-28T03:11:25;25.50;;;14.68;;
39020;SDS011;25188;51.958;5.842;2023-07-28T03:13:50;24.27;;;15.60;;
39020;SDS011;25188;51.958;5.842;2023-07-28T03:16:16;26.85;;;16.23;;
39020;SDS011;25188;51.958;5.842;2023-07-28T03:18:41;23.23;;;15.55;;
39020;SDS011;25188;51.958;5.842;2023-07-28T03:21:08;24.70;;;16.13;;
39020;SDS011;25188;51.958;5.842;2023-07-28T03:23:34;24.83;;;14.32;;
39020;SDS011;25188;51.958;5.842;2023-07-28T03:25:59;31.45;;;17.20;;
39020;SDS011;25188;51.958;5.842;2023-07-28T03:28:28;26.38;;;16.60;;
39020;SDS011;25188;51.958;5.842;2023-07-28T03:30:53;30.52;;;16.98;;
39020;SDS011;25188;51.958;5.842;2023-07-28T03:33:19;27.05;;;16.33;;
39020;SDS011;25188;51.958;5.842;2023-07-28T03:35:45;28.17;;;16.30;;
39020;SDS011;25188;51.958;5.842;2023-07-28T03:38:10;29.85;;;17.55;;
39020;SDS011;25188;51.958;5.842;2023-07-28T03:40:36;31.48;;;18.23;;
39020;SDS011;25188;51.958;5.842;2023-07-28T03:43:02;27.95;;;17.58;;
39020;SDS011;25188;51.958;5.842;2023-07-28T03:45:28;29.20;;;17.08;;
39020;SDS011;25188;51.958;5.842;2023-07-28T03:47:54;27.83;;;16.63;;
39020;SDS011;25188;51.958;5.842;2023-07-28T03:50:19;38.47;;;19.95;;
39020;SDS011;25188;51.958;5.842;2023-07-28T03:52:45;34.75;;;18.42;;
39020;SDS011;25188;51.958;5.842;2023-07-28T03:55:11;30.27;;;17.55;;
39020;SDS011;25188;51.958;5.842;2023-07-28T03:57:36;33.88;;;20.23;;
39020;SDS011;25188;51.958;5.842;2023-07-28T04:00:02;38.88;;;20.15;;
39020;SDS011;25188;51.958;5.842;2023-07-28T04:02:28;32.85;;;17.70;;
39020;SDS011;25188;51.958;5.842;2023-07-28T04:04:54;33.17;;;19.20;;
39020;SDS011;25188;51.958;5.842;2023-07-28T04:07:20;37.22;;;18.73;;
39020;SDS011;25188;51.958;5.842;2023-07-28T04:09:46;32.30;;;17.02;;
39020;SDS011;25188;51.958;5.842;2023-07-28T04:12:11;34.03;;;19.38;;
39020;SDS011;25188;51.958;5.842;2023-07-28T04:14:37;37.58;;;20.98;;
39020;SDS011;25188;51.958;5.842;2023-07-28T04:17:03;36.25;;;20.50;;
39020;SDS011;25188;51.958;5.842;2023-07-28T04:19:29;39.05;;;21.15;;
39020;SDS011;25188;51.958;5.842;2023-07-28T04:21:56;34.30;;;20.02;;
39020;SDS011;25188;51.958;5.842;2023-07-28T04:24:22;41.47;;;20.63;;
39020;SDS011;25188;51.958;5.842;2023-07-28T04:26:48;38.20;;;20.60;;
39020;SDS011;25188;51.958;5.842;2023-07-28T04:29:16;35.92;;;19.73;;
39020;SDS011;25188;51.958;5.842;2023-07-28T04:31:42;40.45;;;20.00;;
39020;SDS011;25188;51.958;5.842;2023-07-28T04:34:07;35.55;;;19.38;;
39020;SDS011;25188;51.958;5.842;2023-07-28T04:36:33;37.47;;;20.27;;
39020;SDS011;25188;51.958;5.842;2023-07-28T04:38:59;39.55;;;21.58;;
39020;SDS011;25188;51.958;5.842;2023-07-28T04:41:24;38.50;;;20.65;;
39020;SDS011;25188;51.958;5.842;2023-07-28T04:43:50;41.00;;;21.98;;
39020;SDS011;25188;51.958;5.842;2023-07-28T04:46:16;42.45;;;21.65;;
39020;SDS011;25188;51.958;5.842;2023-07-28T04:48:41;40.75;;;22.05;;
39020;SDS011;25188;51.958;5.842;2023-07-28T04:51:07;43.20;;;21.73;;
39020;SDS011;25188;51.958;5.842;2023-07-28T04:53:33;39.22;;;21.40;;
39020;SDS011;25188;51.958;5.842;2023-07-28T04:55:58;41.00;;;21.85;;
39020;SDS011;25188;51.958;5.842;2023-07-28T04:58:24;37.08;;;20.20;;
39020;SDS011;25188;51.958;5.842;2023-07-28T05:00:50;35.97;;;18.88;;
39020;SDS011;25188;51.958;5.842;2023-07-28T05:03:15;37.67;;;20.02;;
39020;SDS011;25188;51.958;5.842;2023-07-28T05:05:44;42.08;;;20.55;;
39020;SDS011;25188;51.958;5.842;2023-07-28T05:08:10;43.10;;;22.17;;
39020;SDS011;25188;51.958;5.842;2023-07-28T05:10:36;41.65;;;22.08;;
39020;SDS011;25188;51.958;5.842;2023-07-28T05:13:01;37.60;;;20.42;;
39020;SDS011;25188;51.958;5.842;2023-07-28T05:15:29;37.25;;;21.38;;
39020;SDS011;25188;51.958;5.842;2023-07-28T05:17:55;43.25;;;21.73;;
39020;SDS011;25188;51.958;5.842;2023-07-28T05:20:21;39.53;;;21.85;;
39020;SDS011;25188;51.958;5.842;2023-07-28T05:22:46;39.42;;;21.60;;
39020;SDS011;25188;51.958;5.842;2023-07-28T05:25:12;40.25;;;21.58;;
39020;SDS011;25188;51.958;5.842;2023-07-28T05:27:38;47.88;;;23.48;;
39020;SDS011;25188;51.958;5.842;2023-07-28T05:30:04;51.17;;;25.17;;
39020;SDS011;25188;51.958;5.842;2023-07-28T05:32:30;46.35;;;24.27;;
39020;SDS011;25188;51.958;5.842;2023-07-28T05:34:56;41.58;;;23.60;;
39020;SDS011;25188;51.958;5.842;2023-07-28T05:37:21;41.00;;;23.20;;
39020;SDS011;25188;51.958;5.842;2023-07-28T05:39:47;37.38;;;21.48;;
39020;SDS011;25188;51.958;5.842;2023-07-28T05:42:13;42.17;;;23.67;;
39020;SDS011;25188;51.958;5.842;2023-07-28T05:44:38;39.67;;;21.60;;
39020;SDS011;25188;51.958;5.842;2023-07-28T05:47:04;37.20;;;21.52;;
39020;SDS011;25188;51.958;5.842;2023-07-28T05:49:30;36.28;;;20.73;;
39020;SDS011;25188;51.958;5.842;2023-07-28T05:51:55;33.60;;;19.45;;
39020;SDS011;25188;51.958;5.842;2023-07-28T05:54:21;34.50;;;20.10;;
39020;SDS011;25188;51.958;5.842;2023-07-28T05:56:47;36.15;;;19.35;;
39020;SDS011;25188;51.958;5.842;2023-07-28T05:59:12;36.67;;;20.05;;
39020;SDS011;25188;51.958;5.842;2023-07-28T06:01:38;34.38;;;21.15;;
39020;SDS011;25188;51.958;5.842;2023-07-28T06:04:04;31.35;;;18.88;;
39020;SDS011;25188;51.958;5.842;2023-07-28T06:06:29;31.83;;;18.73;;
39020;SDS011;25188;51.958;5.842;2023-07-28T06:08:55;27.75;;;17.40;;
39020;SDS011;25188;51.958;5.842;2023-07-28T06:11:20;29.98;;;17.23;;
39020;SDS011;25188;51.958;5.842;2023-07-28T06:13:46;25.63;;;16.45;;
39020;SDS011;25188;51.958;5.842;2023-07-28T06:16:13;31.35;;;18.48;;
39020;SDS011;25188;51.958;5.842;2023-07-28T06:18:39;29.63;;;16.83;;
39020;SDS011;25188;51.958;5.842;2023-07-28T06:21:04;25.27;;;16.80;;
39020;SDS011;25188;51.958;5.842;2023-07-28T06:23:30;25.85;;;16.98;;
39020;SDS011;25188;51.958;5.842;2023-07-28T06:25:56;29.85;;;16.00;;
39020;SDS011;25188;51.958;5.842;2023-07-28T06:28:21;24.23;;;14.98;;
39020;SDS011;25188;51.958;5.842;2023-07-28T06:30:47;25.55;;;16.25;;
39020;SDS011;25188;51.958;5.842;2023-07-28T06:33:17;30.55;;;18.80;;
39020;SDS011;25188;51.958;5.842;2023-07-28T06:35:43;29.77;;;18.23;;
39020;SDS011;25188;51.958;5.842;2023-07-28T06:38:09;31.65;;;18.60;;
39020;SDS011;25188;51.958;5.842;2023-07-28T06:40:35;28.08;;;17.65;;
39020;SDS011;25188;51.958;5.842;2023-07-28T06:43:01;28.58;;;17.35;;
39020;SDS011;25188;51.958;5.842;2023-07-28T06:45:27;30.98;;;17.23;;
39020;SDS011;25188;51.958;5.842;2023-07-28T06:47:52;30.30;;;19.05;;
39020;SDS011;25188;51.958;5.842;2023-07-28T06:50:18;31.20;;;20.35;;
39020;SDS011;25188;51.958;5.842;2023-07-28T06:52:45;34.13;;;20.98;;
39020;SDS011;25188;51.958;5.842;2023-07-28T06:55:13;33.38;;;20.23;;
39020;SDS011;25188;51.958;5.842;2023-07-28T06:57:39;35.17;;;21.05;;
39020;SDS011;25188;51.958;5.842;2023-07-28T07:00:05;35.63;;;21.35;;
39020;SDS011;25188;51.958;5.842;2023-07-28T07:02:34;36.17;;;20.70;;
39020;SDS011;25188;51.958;5.842;2023-07-28T07:05:00;39.42;;;21.02;;
39020;SDS011;25188;51.958;5.842;2023-07-28T07:07:26;38.50;;;21.55;;
39020;SDS011;25188;51.958;5.842;2023-07-28T07:09:51;34.45;;;20.15;;
39020;SDS011;25188;51.958;5.842;2023-07-28T07:12:17;27.65;;;17.58;;
39020;SDS011;25188;51.958;5.842;2023-07-28T07:14:44;29.65;;;19.02;;
39020;SDS011;25188;51.958;5.842;2023-07-28T07:17:10;26.48;;;17.77;;
39020;SDS011;25188;51.958;5.842;2023-07-28T07:19:35;28.10;;;16.75;;
39020;SDS011;25188;51.958;5.842;2023-07-28T07:22:01;27.35;;;16.27;;
39020;SDS011;25188;51.958;5.842;2023-07-28T07:24:27;24.60;;;15.02;;
39020;SDS011;25188;51.958;5.842;2023-07-28T07:26:52;26.90;;;16.88;;
39020;SDS011;25188;51.958;5.842;2023-07-28T07:29:18;26.65;;;17.27;;
39020;SDS011;25188;51.958;5.842;2023-07-28T07:31:43;21.23;;;14.15;;
39020;SDS011;25188;51.958;5.842;2023-07-28T07:34:09;22.00;;;14.30;;
39020;SDS011;25188;51.958;5.842;2023-07-28T07:36:35;22.27;;;14.32;;
39020;SDS011;25188;51.958;5.842;2023-07-28T07:39:00;21.25;;;13.82;;
39020;SDS011;25188;51.958;5.842;2023-07-28T07:41:26;18.92;;;13.57;;
39020;SDS011;25188;51.958;5.842;2023-07-28T07:43:53;19.75;;;12.77;;
39020;SDS011;25188;51.958;5.842;2023-07-28T07:46:19;20.92;;;13.13;;
39020;SDS011;25188;51.958;5.842;2023-07-28T07:48:45;20.63;;;12.25;;
39020;SDS011;25188;51.958;5.842;2023-07-28T07:51:11;19.60;;;12.60;;
39020;SDS011;25188;51.958;5.842;2023-07-28T07:53:37;17.48;;;12.00;;
39020;SDS011;25188;51.958;5.842;2023-07-28T07:56:03;20.40;;;13.10;;
39020;SDS011;25188;51.958;5.842;2023-07-28T07:58:29;21.60;;;12.20;;
39020;SDS011;25188;51.958;5.842;2023-07-28T08:00:55;20.17;;;12.80;;
39020;SDS011;25188;51.958;5.842;2023-07-28T08:03:21;21.92;;;12.98;;
39020;SDS011;25188;51.958;5.842;2023-07-28T08:05:47;18.63;;;13.25;;
39020;SDS011;25188;51.958;5.842;2023-07-28T08:08:13;19.90;;;12.95;;
39020;SDS011;25188;51.958;5.842;2023-07-28T08:10:42;18.83;;;12.25;;
39020;SDS011;25188;51.958;5.842;2023-07-28T08:13:08;20.70;;;13.10;;
39020;SDS011;25188;51.958;5.842;2023-07-28T08:15:34;20.20;;;13.07;;
39020;SDS011;25188;51.958;5.842;2023-07-28T08:17:59;18.45;;;12.18;;
39020;SDS011;25188;51.958;5.842;2023-07-28T08:20:25;19.05;;;12.68;;
39020;SDS011;25188;51.958;5.842;2023-07-28T08:22:51;18.80;;;12.40;;
39020;SDS011;25188;51.958;5.842;2023-07-28T08:25:17;19.95;;;12.88;;
39020;SDS011;25188;51.958;5.842;2023-07-28T08:27:43;20.20;;;13.40;;
39020;SDS011;25188;51.958;5.842;2023-07-28T08:30:09;19.20;;;13.13;;
39020;SDS011;25188;51.958;5.842;2023-07-28T08:32:35;24.77;;;14.20;;
39020;SDS011;25188;51.958;5.842;2023-07-28T08:35:01;22.23;;;14.05;;
39020;SDS011;25188;51.958;5.842;2023-07-28T08:37:28;18.10;;;13.27;;
39020;SDS011;25188;51.958;5.842;2023-07-28T08:39:54;20.77;;;14.00;;
39020;SDS011;25188;51.958;5.842;2023-07-28T08:42:20;20.35;;;13.38;;
39020;SDS011;25188;51.958;5.842;2023-07-28T08:44:47;20.23;;;13.50;;
39020;SDS011;25188;51.958;5.842;2023-07-28T08:47:13;21.15;;;13.90;;
39020;SDS011;25188;51.958;5.842;2023-07-28T08:49:39;15.77;;;10.95;;
39020;SDS011;25188;51.958;5.842;2023-07-28T08:52:05;16.98;;;11.38;;
39020;SDS011;25188;51.958;5.842;2023-07-28T08:54:31;18.30;;;11.50;;
39020;SDS011;25188;51.958;5.842;2023-07-28T08:56:57;18.17;;;10.65;;
39020;SDS011;25188;51.958;5.842;2023-07-28T08:59:25;15.95;;;9.90;;
39020;SDS011;25188;51.958;5.842;2023-07-28T09:01:53;18.48;;;11.52;;
39020;SDS011;25188;51.958;5.842;2023-07-28T09:04:20;14.98;;;10.07;;
39020;SDS011;25188;51.958;5.842;2023-07-28T09:06:47;17.85;;;10.52;;
39020;SDS011;25188;51.958;5.842;2023-07-28T09:09:14;16.85;;;10.35;;
39020;SDS011;25188;51.958;5.842;2023-07-28T09:11:44;14.60;;;9.50;;
39020;SDS011;25188;51.958;5.842;2023-07-28T09:14:12;13.15;;;8.98;;
39020;SDS011;25188;51.958;5.842;2023-07-28T09:16:38;15.57;;;11.30;;
39020;SDS011;25188;51.958;5.842;2023-07-28T09:19:05;17.55;;;11.07;;
39020;SDS011;25188;51.958;5.842;2023-07-28T09:21:32;14.45;;;10.43;;
39020;SDS011;25188;51.958;5.842;2023-07-28T09:24:01;13.93;;;9.68;;
39020;SDS011;25188;51.958;5.842;2023-07-28T09:26:40;14.38;;;9.75;;
39020;SDS011;25188;51.958;5.842;2023-07-28T09:29:20;15.27;;;9.88;;
39020;SDS011;25188;51.958;5.842;2023-07-28T09:31:48;14.13;;;9.13;;
39020;SDS011;25188;51.958;5.842;2023-07-28T09:34:27;13.32;;;9.02;;
39020;SDS011;25188;51.958;5.842;2023-07-28T09:36:53;11.50;;;8.65;;
39020;SDS011;25188;51.958;5.842;2023-07-28T09:39:20;13.55;;;9.35;;
39020;SDS011;25188;51.958;5.842;2023-07-28T09:41:47;12.05;;;9.40;;
39020;SDS011;25188;51.958;5.842;2023-07-28T09:44:13;14.15;;;8.75;;
39020;SDS011;25188;51.958;5.842;2023-07-28T09:47:01;12.18;;;7.82;;
39020;SDS011;25188;51.958;5.842;2023-07-28T09:49:36;14.40;;;9.63;;
39020;SDS011;25188;51.958;5.842;2023-07-28T09:52:05;13.20;;;9.20;;
39020;SDS011;25188;51.958;5.842;2023-07-28T09:54:40;13.90;;;9.70;;
39020;SDS011;25188;51.958;5.842;2023-07-28T09:57:08;13.23;;;9.43;;
39020;SDS011;25188;51.958;5.842;2023-07-28T09:59:40;12.95;;;8.95;;
39020;SDS011;25188;51.958;5.842;2023-07-28T10:02:07;16.23;;;10.23;;
39020;SDS011;25188;51.958;5.842;2023-07-28T10:04:34;12.57;;;9.05;;
39020;SDS011;25188;51.958;5.842;2023-07-28T10:07:00;12.30;;;8.73;;
39020;SDS011;25188;51.958;5.842;2023-07-28T10:09:27;14.20;;;9.30;;
39020;SDS011;25188;51.958;5.842;2023-07-28T10:11:55;10.82;;;8.15;;
39020;SDS011;25188;51.958;5.842;2023-07-28T10:14:25;11.43;;;7.88;;
39020;SDS011;25188;51.958;5.842;2023-07-28T10:16:56;13.20;;;8.65;;
39020;SDS011;25188;51.958;5.842;2023-07-28T10:19:26;12.63;;;8.18;;
39020;SDS011;25188;51.958;5.842;2023-07-28T10:21:59;11.55;;;8.80;;
39020;SDS011;25188;51.958;5.842;2023-07-28T10:30:02;12.43;;;8.75;;
39020;SDS011;25188;51.958;5.842;2023-07-28T10:32:36;14.23;;;9.48;;
39020;SDS011;25188;51.958;5.842;2023-07-28T10:37:38;11.23;;;7.25;;
39020;SDS011;25188;51.958;5.842;2023-07-28T10:43:00;10.18;;;7.82;;
39020;SDS011;25188;51.958;5.842;2023-07-28T10:45:27;9.93;;;7.32;;
39020;SDS011;25188;51.958;5.842;2023-07-28T10:47:55;11.65;;;7.45;;
39020;SDS011;25188;51.958;5.842;2023-07-28T10:50:28;11.48;;;8.02;;
39020;SDS011;25188;51.958;5.842;2023-07-28T10:52:55;11.20;;;8.30;;
39020;SDS011;25188;51.958;5.842;2023-07-28T10:55:22;14.50;;;7.35;;
39020;SDS011;25188;51.958;5.842;2023-07-28T10:57:50;9.20;;;6.60;;
39020;SDS011;25188;51.958;5.842;2023-07-28T11:00:17;9.45;;;7.28;;
39020;SDS011;25188;51.958;5.842;2023-07-28T11:02:45;8.70;;;6.32;;
39020;SDS011;25188;51.958;5.842;2023-07-28T11:05:23;9.63;;;6.35;;
39020;SDS011;25188;51.958;5.842;2023-07-28T11:07:51;9.93;;;6.57;;
39020;SDS011;25188;51.958;5.842;2023-07-28T11:10:19;8.57;;;5.72;;
39020;SDS011;25188;51.958;5.842;2023-07-28T11:12:46;7.00;;;5.63;;
39020;SDS011;25188;51.958;5.842;2023-07-28T11:15:31;8.70;;;4.88;;
39020;SDS011;25188;51.958;5.842;2023-07-28T11:17:59;9.27;;;6.22;;
39020;SDS011;25188;51.958;5.842;2023-07-28T11:20:26;9.48;;;6.53;;
39020;SDS011;25188;51.958;5.842;2023-07-28T11:23:02;10.52;;;8.13;;
39020;SDS011;25188;51.958;5.842;2023-07-28T11:25:29;11.48;;;8.25;;
39020;SDS011;25188;51.958;5.842;2023-07-28T11:27:56;11.90;;;9.30;;
39020;SDS011;25188;51.958;5.842;2023-07-28T11:30:22;10.30;;;7.43;;
39020;SDS011;25188;51.958;5.842;2023-07-28T11:32:50;11.35;;;8.38;;
39020;SDS011;25188;51.958;5.842;2023-07-28T11:35:17;10.55;;;7.70;;
39020;SDS011;25188;51.958;5.842;2023-07-28T11:37:48;9.43;;;7.15;;
39020;SDS011;25188;51.958;5.842;2023-07-28T11:40:20;9.80;;;6.82;;
39020;SDS011;25188;51.958;5.842;2023-07-28T11:42:47;8.50;;;6.85;;
39020;SDS011;25188;51.958;5.842;2023-07-28T11:45:18;10.43;;;6.90;;
39020;SDS011;25188;51.958;5.842;2023-07-28T11:47:52;10.18;;;7.22;;
39020;SDS011;25188;51.958;5.842;2023-07-28T11:50:23;8.75;;;6.15;;
39020;SDS011;25188;51.958;5.842;2023-07-28T11:52:50;10.45;;;6.47;;
39020;SDS011;25188;51.958;5.842;2023-07-28T11:55:16;9.38;;;6.57;;
39020;SDS011;25188;51.958;5.842;2023-07-28T11:57:42;9.57;;;6.30;;
39020;SDS011;25188;51.958;5.842;2023-07-28T12:00:08;7.95;;;5.93;;
39020;SDS011;25188;51.958;5.842;2023-07-28T12:02:34;8.23;;;5.97;;
39020;SDS011;25188;51.958;5.842;2023-07-28T12:05:00;10.95;;;7.53;;
39020;SDS011;25188;51.958;5.842;2023-07-28T12:07:32;10.73;;;6.55;;
39020;SDS011;25188;51.958;5.842;2023-07-28T12:10:05;9.10;;;6.60;;
39020;SDS011;25188;51.958;5.842;2023-07-28T12:13:07;8.13;;;5.95;;
39020;SDS011;25188;51.958;5.842;2023-07-28T12:15:32;8.18;;;4.97;;
39020;SDS011;25188;51.958;5.842;2023-07-28T12:20:33;8.35;;;5.72;;
39020;SDS011;25188;51.958;5.842;2023-07-28T12:23:00;7.43;;;5.57;;
39020;SDS011;25188;51.958;5.842;2023-07-28T12:25:26;7.03;;;4.75;;
39020;SDS011;25188;51.958;5.842;2023-07-28T12:27:51;9.27;;;6.13;;
39020;SDS011;25188;51.958;5.842;2023-07-28T12:30:17;7.53;;;5.07;;
39020;SDS011;25188;51.958;5.842;2023-07-28T12:32:43;8.32;;;4.85;;
39020;SDS011;25188;51.958;5.842;2023-07-28T12:35:09;8.30;;;5.30;;
39020;SDS011;25188;51.958;5.842;2023-07-28T12:37:35;8.57;;;5.97;;
39020;SDS011;25188;51.958;5.842;2023-07-28T12:40:00;8.50;;;4.93;;
39020;SDS011;25188;51.958;5.842;2023-07-28T12:42:27;8.93;;;5.43;;
39020;SDS011;25188;51.958;5.842;2023-07-28T12:44:52;6.82;;;4.88;;
39020;SDS011;25188;51.958;5.842;2023-07-28T12:47:18;6.75;;;4.78;;
39020;SDS011;25188;51.958;5.842;2023-07-28T12:49:43;6.28;;;4.50;;
39020;SDS011;25188;51.958;5.842;2023-07-28T12:52:09;8.77;;;4.85;;
39020;SDS011;25188;51.958;5.842;2023-07-28T12:54:35;7.32;;;4.40;;
39020;SDS011;25188;51.958;5.842;2023-07-28T12:57:00;8.27;;;5.78;;
39020;SDS011;25188;51.958;5.842;2023-07-28T12:59:26;6.78;;;4.20;;
39020;SDS011;25188;51.958;5.842;2023-07-28T13:01:54;6.80;;;4.45;;
39020;SDS011;25188;51.958;5.842;2023-07-28T13:04:21;6.82;;;3.60;;
39020;SDS011;25188;51.958;5.842;2023-07-28T13:06:47;4.72;;;2.90;;
39020;SDS011;25188;51.958;5.842;2023-07-28T13:09:12;6.28;;;4.07;;
39020;SDS011;25188;51.958;5.842;2023-07-28T13:11:38;5.35;;;3.30;;
39020;SDS011;25188;51.958;5.842;2023-07-28T13:14:04;5.78;;;3.55;;
39020;SDS011;25188;51.958;5.842;2023-07-28T13:16:29;3.78;;;2.40;;
39020;SDS011;25188;51.958;5.842;2023-07-28T13:18:56;5.63;;;2.78;;
39020;SDS011;25188;51.958;5.842;2023-07-28T13:21:22;4.15;;;2.70;;
39020;SDS011;25188;51.958;5.842;2023-07-28T13:23:48;5.32;;;3.25;;
39020;SDS011;25188;51.958;5.842;2023-07-28T13:26:14;3.83;;;2.88;;
39020;SDS011;25188;51.958;5.842;2023-07-28T13:28:39;5.68;;;2.58;;
39020;SDS011;25188;51.958;5.842;2023-07-28T13:31:11;4.05;;;2.50;;
39020;SDS011;25188;51.958;5.842;2023-07-28T13:33:37;5.13;;;2.38;;
39020;SDS011;25188;51.958;5.842;2023-07-28T13:36:03;3.40;;;2.17;;
39020;SDS011;25188;51.958;5.842;2023-07-28T13:38:32;3.40;;;1.90;;
39020;SDS011;25188;51.958;5.842;2023-07-28T13:40:57;4.53;;;2.53;;
39020;SDS011;25188;51.958;5.842;2023-07-28T13:43:23;2.47;;;1.48;;
39020;SDS011;25188;51.958;5.842;2023-07-28T13:45:49;2.65;;;1.42;;
39020;SDS011;25188;51.958;5.842;2023-07-28T13:48:15;3.72;;;1.65;;
39020;SDS011;25188;51.958;5.842;2023-07-28T13:50:41;2.45;;;1.60;;
39020;SDS011;25188;51.958;5.842;2023-07-28T13:53:06;3.10;;;1.52;;
39020;SDS011;25188;51.958;5.842;2023-07-28T13:55:32;2.58;;;1.70;;
39020;SDS011;25188;51.958;5.842;2023-07-28T13:57:58;4.65;;;1.95;;
39020;SDS011;25188;51.958;5.842;2023-07-28T14:00:23;5.13;;;1.67;;
39020;SDS011;25188;51.958;5.842;2023-07-28T14:02:49;4.47;;;1.98;;
39020;SDS011;25188;51.958;5.842;2023-07-28T14:05:14;3.88;;;2.40;;
39020;SDS011;25188;51.958;5.842;2023-07-28T14:07:40;5.75;;;1.92;;
39020;SDS011;25188;51.958;5.842;2023-07-28T14:10:06;3.45;;;2.08;;
39020;SDS011;25188;51.958;5.842;2023-07-28T14:12:32;3.20;;;2.10;;
39020;SDS011;25188;51.958;5.842;2023-07-28T14:14:57;2.83;;;1.92;;
39020;SDS011;25188;51.958;5.842;2023-07-28T14:17:23;4.35;;;2.10;;
39020;SDS011;25188;51.958;5.842;2023-07-28T14:19:49;3.75;;;2.30;;
39020;SDS011;25188;51.958;5.842;2023-07-28T14:22:14;3.35;;;2.28;;
39020;SDS011;25188;51.958;5.842;2023-07-28T14:24:40;4.35;;;2.35;;
39020;SDS011;25188;51.958;5.842;2023-07-28T14:27:06;3.50;;;2.17;;
39020;SDS011;25188;51.958;5.842;2023-07-28T14:29:31;3.47;;;2.13;;
39020;SDS011;25188;51.958;5.842;2023-07-28T14:31:57;3.55;;;2.40;;
39020;SDS011;25188;51.958;5.842;2023-07-28T14:34:23;3.78;;;2.05;;
39020;SDS011;25188;51.958;5.842;2023-07-28T14:36:49;4.57;;;2.13;;
39020;SDS011;25188;51.958;5.842;2023-07-28T14:39:14;4.15;;;2.50;;
39020;SDS011;25188;51.958;5.842;2023-07-28T14:41:40;2.90;;;1.70;;
39020;SDS011;25188;51.958;5.842;2023-07-28T14:44:06;4.97;;;2.80;;